createdAt,value
2022-10-19T00:00:53.590Z,1010.67
2022-10-19T00:01:53.625Z,1010.71
2022-10-19T00:02:53.605Z,1010.70
2022-10-19T00:03:53.596Z,1010.65
2022-10-19T00:04:53.568Z,1010.62
2022-10-19T00:05:53.571Z,1010.66
2022-10-19T00:06:53.547Z,1010.62
2022-10-19T00:07:53.557Z,1010.59
2022-10-19T00:08:53.574Z,1010.64
2022-10-19T00:09:53.534Z,1010.63
2022-10-19T00:10:53.539Z,1010.61
2022-10-19T00:11:53.510Z,1010.60
2022-10-19T00:12:53.536Z,1010.63
2022-10-19T00:13:53.542Z,1010.61
2022-10-19T00:14:53.502Z,1010.63
2022-10-19T00:15:53.494Z,1010.69
2022-10-19T00:16:53.483Z,1010.67
2022-10-19T00:17:53.488Z,1010.64
2022-10-19T00:18:53.494Z,1010.74
2022-10-19T00:19:53.486Z,1010.75
2022-10-19T00:20:53.462Z,1010.73
2022-10-19T00:21:53.466Z,1010.79
2022-10-19T00:22:53.457Z,1010.79
2022-10-19T00:23:53.446Z,1010.78
2022-10-19T00:24:54.411Z,1010.81
2022-10-19T00:25:53.481Z,1010.81
2022-10-19T00:26:53.422Z,1010.79
2022-10-19T00:27:53.409Z,1010.79
2022-10-19T00:28:53.509Z,1010.81
2022-10-19T00:29:53.407Z,1010.79
2022-10-19T00:30:53.399Z,1010.81
2022-10-19T00:31:53.389Z,1010.85
2022-10-19T00:32:53.381Z,1010.82
2022-10-19T00:33:53.370Z,1010.89
2022-10-19T00:34:53.378Z,1010.86
2022-10-19T00:35:53.382Z,1010.83
2022-10-19T00:36:53.349Z,1010.87
2022-10-19T00:37:53.358Z,1010.85
2022-10-19T00:38:53.325Z,1010.90
2022-10-19T00:39:53.349Z,1010.83
2022-10-19T00:40:53.326Z,1010.88
2022-10-19T00:41:53.334Z,1010.86
2022-10-19T00:42:53.314Z,1010.87
2022-10-19T00:43:53.327Z,1010.93
2022-10-19T00:44:53.332Z,1010.90
2022-10-19T00:45:53.297Z,1010.90
2022-10-19T00:46:53.296Z,1010.89
2022-10-19T00:47:53.278Z,1010.90
2022-10-19T00:48:53.271Z,1010.94
2022-10-19T00:49:53.274Z,1010.98
2022-10-19T00:50:53.277Z,1010.91
2022-10-19T00:51:53.257Z,1010.98
2022-10-19T00:52:53.241Z,1011.02
2022-10-19T00:53:53.253Z,1011.02
2022-10-19T00:54:53.230Z,1010.98
2022-10-19T00:55:53.270Z,1011.01
2022-10-19T00:56:53.214Z,1011.03
2022-10-19T00:57:53.242Z,1010.98
2022-10-19T00:58:53.226Z,1010.95
2022-10-19T00:59:53.221Z,1011.02
2022-10-19T01:00:53.248Z,1010.89
2022-10-19T01:01:53.294Z,1010.99
2022-10-19T01:02:53.175Z,1010.94
2022-10-19T01:03:53.197Z,1010.97
2022-10-19T01:04:53.170Z,1010.89
2022-10-19T01:05:53.166Z,1010.92
2022-10-19T01:06:53.196Z,1010.92
2022-10-19T01:07:53.163Z,1010.90
2022-10-19T01:08:53.145Z,1010.84
2022-10-19T01:09:53.186Z,1010.88
2022-10-19T01:10:53.130Z,1010.82
2022-10-19T01:11:53.133Z,1010.77
2022-10-19T01:12:53.109Z,1010.79
2022-10-19T01:13:53.101Z,1010.77
2022-10-19T01:14:53.117Z,1010.79
2022-10-19T01:16:53.098Z,1010.76
2022-10-19T01:17:53.979Z,1010.73
2022-10-19T01:18:53.122Z,1010.79
2022-10-19T01:19:53.065Z,1010.77
2022-10-19T01:20:53.050Z,1010.81
2022-10-19T01:21:53.073Z,1010.75
2022-10-19T01:22:53.064Z,1010.74
2022-10-19T01:23:53.029Z,1010.76
2022-10-19T01:24:53.018Z,1010.81
2022-10-19T01:25:53.017Z,1010.75
2022-10-19T01:26:53.050Z,1010.81
2022-10-19T01:27:53.008Z,1010.79
2022-10-19T01:28:53.097Z,1010.77
2022-10-19T01:29:53.006Z,1010.73
2022-10-19T01:30:52.989Z,1010.80
2022-10-19T01:31:52.985Z,1010.79
2022-10-19T01:32:52.998Z,1010.83
2022-10-19T01:33:53.015Z,1010.75
2022-10-19T01:34:52.965Z,1010.79
2022-10-19T01:35:52.939Z,1010.71
2022-10-19T01:36:52.953Z,1010.76
2022-10-19T01:37:52.965Z,1010.78
2022-10-19T01:38:52.928Z,1010.77
2022-10-19T01:39:52.921Z,1010.72
2022-10-19T01:40:52.933Z,1010.76
2022-10-19T01:41:52.933Z,1010.81
2022-10-19T01:42:52.901Z,1010.77
2022-10-19T01:43:52.931Z,1010.76
2022-10-19T01:44:52.884Z,1010.72
2022-10-19T01:45:52.881Z,1010.71
2022-10-19T01:46:52.891Z,1010.69
2022-10-19T01:47:52.878Z,1010.69
2022-10-19T01:48:52.879Z,1010.64
2022-10-19T01:49:52.863Z,1010.56
2022-10-19T01:50:52.849Z,1010.59
2022-10-19T01:51:52.871Z,1010.56
2022-10-19T01:52:52.856Z,1010.49
2022-10-19T01:53:52.837Z,1010.45
2022-10-19T01:54:52.824Z,1010.42
2022-10-19T01:55:52.823Z,1010.41
2022-10-19T01:56:52.808Z,1010.45
2022-10-19T01:57:52.810Z,1010.45
2022-10-19T01:58:52.810Z,1010.46
2022-10-19T01:59:52.789Z,1010.43
2022-10-19T02:00:52.914Z,1010.42
2022-10-19T02:01:53.792Z,1010.45
2022-10-19T02:02:52.773Z,1010.44
2022-10-19T02:03:52.784Z,1010.40
2022-10-19T02:04:52.775Z,1010.37
2022-10-19T02:05:52.753Z,1010.42
2022-10-19T02:06:52.749Z,1010.41
2022-10-19T02:07:52.735Z,1010.31
2022-10-19T02:08:52.746Z,1010.39
2022-10-19T02:09:52.721Z,1010.37
2022-10-19T02:10:52.897Z,1010.30
2022-10-19T02:11:56.160Z,1010.38
2022-10-19T02:12:52.705Z,1010.39
2022-10-19T02:13:53.509Z,1010.36
2022-10-19T02:14:52.708Z,1010.40
2022-10-19T02:15:52.765Z,1010.36
2022-10-19T02:16:52.677Z,1010.35
2022-10-19T02:17:52.678Z,1010.30
2022-10-19T02:18:52.682Z,1010.32
2022-10-19T02:19:52.673Z,1010.44
2022-10-19T02:20:52.725Z,1010.42
2022-10-19T02:21:52.652Z,1010.47
2022-10-19T02:22:52.624Z,1010.47
2022-10-19T02:23:54.195Z,1010.50
2022-10-19T02:24:52.638Z,1010.50
2022-10-19T02:25:52.622Z,1010.49
2022-10-19T02:26:52.617Z,1010.51
2022-10-19T02:27:52.601Z,1010.53
2022-10-19T02:28:52.615Z,1010.51
2022-10-19T02:29:52.620Z,1010.44
2022-10-19T02:30:52.588Z,1010.51
2022-10-19T02:31:52.585Z,1010.51
2022-10-19T02:32:52.566Z,1010.50
2022-10-19T02:33:52.561Z,1010.51
2022-10-19T02:34:52.570Z,1010.50
2022-10-19T02:35:53.468Z,1010.48
2022-10-19T02:36:52.540Z,1010.46
2022-10-19T02:37:52.545Z,1010.52
2022-10-19T02:38:52.529Z,1010.45
2022-10-19T02:39:52.520Z,1010.46
2022-10-19T02:40:52.546Z,1010.52
2022-10-19T02:41:52.500Z,1010.49
2022-10-19T02:42:52.501Z,1010.48
2022-10-19T02:43:52.521Z,1010.50
2022-10-19T02:44:52.487Z,1010.48
2022-10-19T02:45:52.520Z,1010.50
2022-10-19T02:46:52.498Z,1010.52
2022-10-19T02:47:52.476Z,1010.56
2022-10-19T02:48:52.495Z,1010.51
2022-10-19T02:49:52.472Z,1010.53
2022-10-19T02:50:52.453Z,1010.54
2022-10-19T02:51:52.449Z,1010.52
2022-10-19T02:52:52.449Z,1010.50
2022-10-19T02:53:52.444Z,1010.51
2022-10-19T02:54:52.421Z,1010.45
2022-10-19T02:55:52.450Z,1010.49
2022-10-19T02:56:52.417Z,1010.43
2022-10-19T02:57:52.424Z,1010.44
2022-10-19T02:58:52.393Z,1010.46
2022-10-19T02:59:52.392Z,1010.46
2022-10-19T03:00:52.459Z,1010.45
2022-10-19T03:01:52.387Z,1010.45
2022-10-19T03:02:52.385Z,1010.49
2022-10-19T03:03:52.375Z,1010.48
2022-10-19T03:04:52.367Z,1010.44
2022-10-19T03:05:52.369Z,1010.47
2022-10-19T03:06:52.349Z,1010.50
2022-10-19T03:07:52.349Z,1010.51
2022-10-19T03:08:52.333Z,1010.54
2022-10-19T03:09:52.336Z,1010.57
2022-10-19T03:10:52.321Z,1010.54
2022-10-19T03:11:52.352Z,1010.57
2022-10-19T03:12:52.309Z,1010.58
2022-10-19T03:13:52.308Z,1010.60
2022-10-19T03:14:52.320Z,1010.55
2022-10-19T03:15:52.296Z,1010.55
2022-10-19T03:16:52.418Z,1010.53
2022-10-19T03:17:52.277Z,1010.58
2022-10-19T03:18:52.290Z,1010.58
2022-10-19T03:19:52.253Z,1010.48
2022-10-19T03:20:52.289Z,1010.52
2022-10-19T03:21:52.244Z,1010.60
2022-10-19T03:23:52.288Z,1010.60
2022-10-19T03:24:52.228Z,1010.59
2022-10-19T03:25:52.240Z,1010.62
2022-10-19T03:26:52.235Z,1010.63
2022-10-19T03:27:52.212Z,1010.62
2022-10-19T03:28:52.265Z,1010.71
2022-10-19T03:29:52.203Z,1010.66
2022-10-19T03:30:52.188Z,1010.66
2022-10-19T03:31:52.193Z,1010.70
2022-10-19T03:32:52.195Z,1010.69
2022-10-19T03:33:52.184Z,1010.69
2022-10-19T03:34:52.205Z,1010.70
2022-10-19T03:35:52.164Z,1010.69
2022-10-19T03:36:52.160Z,1010.73
2022-10-19T03:37:52.132Z,1010.71
2022-10-19T03:38:52.140Z,1010.77
2022-10-19T03:39:52.133Z,1010.76
2022-10-19T03:40:52.120Z,1010.70
2022-10-19T03:41:52.140Z,1010.75
2022-10-19T03:42:52.116Z,1010.76
2022-10-19T03:43:52.182Z,1010.74
2022-10-19T03:44:52.100Z,1010.78
2022-10-19T03:45:52.092Z,1010.80
2022-10-19T03:46:52.075Z,1010.72
2022-10-19T03:47:52.087Z,1010.69
2022-10-19T03:48:52.094Z,1010.68
2022-10-19T03:49:52.061Z,1010.66
2022-10-19T03:50:52.062Z,1010.70
2022-10-19T03:51:52.053Z,1010.61
2022-10-19T03:52:52.096Z,1010.60
2022-10-19T03:53:52.055Z,1010.61
2022-10-19T03:54:52.028Z,1010.67
2022-10-19T03:55:52.065Z,1010.67
2022-10-19T03:56:52.093Z,1010.66
2022-10-19T03:57:52.025Z,1010.64
2022-10-19T03:58:52.012Z,1010.70
2022-10-19T03:59:52.007Z,1010.75
2022-10-19T04:00:52.033Z,1010.68
2022-10-19T04:01:52.853Z,1010.66
2022-10-19T04:02:51.999Z,1010.68
2022-10-19T04:03:52.017Z,1010.73
2022-10-19T04:04:51.962Z,1010.74
2022-10-19T04:05:51.970Z,1010.71
2022-10-19T04:06:51.941Z,1010.68
2022-10-19T04:07:51.949Z,1010.68
2022-10-19T04:08:51.956Z,1010.73
2022-10-19T04:09:52.022Z,1010.72
2022-10-19T04:10:51.949Z,1010.72
2022-10-19T04:11:51.908Z,1010.72
2022-10-19T04:12:53.889Z,1010.70
2022-10-19T04:13:52.934Z,1010.72
2022-10-19T04:14:57.293Z,1010.78
2022-10-19T04:15:53.885Z,1010.78
2022-10-19T04:16:52.463Z,1010.85
2022-10-19T04:17:52.474Z,1010.82
2022-10-19T04:18:51.870Z,1010.84
2022-10-19T04:19:51.904Z,1010.85
2022-10-19T04:20:51.845Z,1010.89
2022-10-19T04:21:51.852Z,1010.87
2022-10-19T04:22:51.854Z,1010.81
2022-10-19T04:23:51.851Z,1010.84
2022-10-19T04:24:52.409Z,1010.83
2022-10-19T04:25:51.921Z,1010.88
2022-10-19T04:26:51.860Z,1010.83
2022-10-19T04:27:51.800Z,1010.79
2022-10-19T04:28:51.857Z,1010.90
2022-10-19T04:29:51.812Z,1010.92
2022-10-19T04:30:51.781Z,1010.93
2022-10-19T04:31:51.822Z,1010.91
2022-10-19T04:32:51.797Z,1010.91
2022-10-19T04:33:51.778Z,1010.91
2022-10-19T04:34:51.818Z,1010.95
2022-10-19T04:35:51.746Z,1010.93
2022-10-19T04:36:51.774Z,1010.97
2022-10-19T04:37:51.785Z,1010.95
2022-10-19T04:38:51.829Z,1010.89
2022-10-19T04:39:51.813Z,1010.95
2022-10-19T04:40:51.749Z,1010.89
2022-10-19T04:41:51.704Z,1010.99
2022-10-19T04:42:51.706Z,1010.93
2022-10-19T04:43:51.833Z,1010.89
2022-10-19T04:44:51.901Z,1010.90
2022-10-19T04:45:51.696Z,1010.91
2022-10-19T04:46:51.692Z,1010.94
2022-10-19T04:47:51.668Z,1010.89
2022-10-19T04:48:51.696Z,1010.92
2022-10-19T04:49:51.685Z,1010.93
2022-10-19T04:50:51.839Z,1010.93
2022-10-19T04:51:52.434Z,1010.91
2022-10-19T04:52:51.688Z,1010.91
2022-10-19T04:53:53.362Z,1010.90
2022-10-19T04:54:51.629Z,1010.87
2022-10-19T04:55:52.633Z,1010.82
2022-10-19T04:56:51.616Z,1010.82
2022-10-19T04:57:51.624Z,1010.85
2022-10-19T04:58:51.599Z,1010.85
2022-10-19T04:59:51.612Z,1010.80
2022-10-19T05:00:51.665Z,1010.81
2022-10-19T05:01:51.577Z,1010.77
2022-10-19T05:03:24.016Z,1010.76
2022-10-19T05:03:51.609Z,1010.77
2022-10-19T05:04:51.614Z,1010.76
2022-10-19T05:05:51.572Z,1010.73
2022-10-19T05:06:51.588Z,1010.79
2022-10-19T05:07:51.542Z,1010.78
2022-10-19T05:08:51.540Z,1010.79
2022-10-19T05:09:51.551Z,1010.75
2022-10-19T05:10:51.514Z,1010.73
2022-10-19T05:11:51.534Z,1010.79
2022-10-19T05:12:51.502Z,1010.77
2022-10-19T05:13:51.495Z,1010.74
2022-10-19T05:14:51.510Z,1010.77
2022-10-19T05:15:51.547Z,1010.73
2022-10-19T05:16:51.491Z,1010.74
2022-10-19T05:17:51.522Z,1010.69
2022-10-19T05:18:51.502Z,1010.72
2022-10-19T05:19:51.494Z,1010.75
2022-10-19T05:20:51.441Z,1010.74
2022-10-19T05:21:51.453Z,1010.71
2022-10-19T05:22:51.558Z,1010.78
2022-10-19T05:23:51.457Z,1010.78
2022-10-19T05:24:54.505Z,1010.79
2022-10-19T05:25:53.434Z,1010.77
2022-10-19T05:26:51.441Z,1010.74
2022-10-19T05:27:51.416Z,1010.74
2022-10-19T05:28:51.419Z,1010.75
2022-10-19T05:29:51.407Z,1010.69
2022-10-19T05:30:51.442Z,1010.69
2022-10-19T05:31:51.413Z,1010.71
2022-10-19T05:32:51.422Z,1010.72
2022-10-19T05:33:51.438Z,1010.70
2022-10-19T05:34:51.402Z,1010.69
2022-10-19T05:35:51.357Z,1010.72
2022-10-19T05:36:51.357Z,1010.76
2022-10-19T05:37:51.422Z,1010.82
2022-10-19T05:38:51.346Z,1010.71
2022-10-19T05:39:51.333Z,1010.70
2022-10-19T05:40:53.576Z,1010.77
2022-10-19T05:41:51.318Z,1010.76
2022-10-19T05:42:51.342Z,1010.69
2022-10-19T05:43:51.318Z,1010.75
2022-10-19T05:44:51.315Z,1010.70
2022-10-19T05:45:51.290Z,1010.73
2022-10-19T05:46:51.358Z,1010.75
2022-10-19T05:47:51.285Z,1010.70
2022-10-19T05:48:51.986Z,1010.71
2022-10-19T05:49:51.270Z,1010.71
2022-10-19T05:50:51.278Z,1010.69
2022-10-19T05:51:51.277Z,1010.71
2022-10-19T05:52:51.266Z,1010.70
2022-10-19T05:53:51.274Z,1010.77
2022-10-19T05:54:51.222Z,1010.80
2022-10-19T05:55:51.222Z,1010.76
2022-10-19T05:56:51.294Z,1010.78
2022-10-19T05:57:51.231Z,1010.77
2022-10-19T05:58:52.029Z,1010.78
2022-10-19T05:59:51.193Z,1010.77
2022-10-19T06:00:51.211Z,1010.73
2022-10-19T06:01:51.211Z,1010.73
2022-10-19T06:02:53.697Z,1010.78
2022-10-19T06:03:51.162Z,1010.76
2022-10-19T06:04:51.167Z,1010.69
2022-10-19T06:05:51.991Z,1010.76
2022-10-19T06:06:51.137Z,1010.71
2022-10-19T06:07:51.161Z,1010.80
2022-10-19T06:08:51.144Z,1010.75
2022-10-19T06:09:51.121Z,1010.75
2022-10-19T06:10:51.134Z,1010.79
2022-10-19T06:11:51.109Z,1010.78
2022-10-19T06:12:51.198Z,1010.83
2022-10-19T06:13:51.105Z,1010.82
2022-10-19T06:14:51.174Z,1010.78
2022-10-19T06:15:51.096Z,1010.87
2022-10-19T06:16:51.131Z,1010.83
2022-10-19T06:17:51.082Z,1010.85
2022-10-19T06:18:51.086Z,1010.83
2022-10-19T06:19:51.077Z,1010.87
2022-10-19T06:20:51.058Z,1010.88
2022-10-19T06:21:51.224Z,1010.85
2022-10-19T06:22:51.050Z,1010.87
2022-10-19T06:23:51.060Z,1010.86
2022-10-19T06:24:51.050Z,1010.86
2022-10-19T06:25:51.018Z,1010.86
2022-10-19T06:26:51.054Z,1010.85
2022-10-19T06:27:51.044Z,1010.91
2022-10-19T06:28:51.018Z,1010.91
2022-10-19T06:29:51.006Z,1010.91
2022-10-19T06:30:51.036Z,1010.91
2022-10-19T06:31:51.082Z,1010.92
2022-10-19T06:32:51.138Z,1010.87
2022-10-19T06:33:51.006Z,1010.93
2022-10-19T06:34:55.717Z,1010.89
2022-10-19T06:35:52.970Z,1010.95
2022-10-19T06:36:50.947Z,1010.95
2022-10-19T06:37:50.942Z,1010.92
2022-10-19T06:38:51.015Z,1011.00
2022-10-19T06:39:51.212Z,1010.97
2022-10-19T06:40:50.923Z,1010.94
2022-10-19T06:41:50.939Z,1010.97
2022-10-19T06:42:50.939Z,1011.00
2022-10-19T06:43:50.955Z,1011.02
2022-10-19T06:44:50.917Z,1011.02
2022-10-19T06:45:50.933Z,1011.05
2022-10-19T06:46:50.943Z,1011.06
2022-10-19T06:47:51.010Z,1011.05
2022-10-19T06:48:50.916Z,1011.02
2022-10-19T06:49:50.882Z,1011.04
2022-10-19T06:50:50.857Z,1011.00
2022-10-19T06:51:50.842Z,1011.01
2022-10-19T06:52:50.975Z,1011.08
2022-10-19T06:53:52.815Z,1011.03
2022-10-19T06:54:51.862Z,1011.04
2022-10-19T06:55:50.814Z,1011.04
2022-10-19T06:56:50.845Z,1011.07
2022-10-19T06:57:50.858Z,1011.10
2022-10-19T06:58:50.817Z,1011.03
2022-10-19T06:59:52.880Z,1011.05
2022-10-19T07:00:50.873Z,1011.04
2022-10-19T07:01:50.781Z,1011.06
2022-10-19T07:02:50.807Z,1011.07
2022-10-19T07:03:50.770Z,1011.02
2022-10-19T07:04:50.774Z,1011.05
2022-10-19T07:05:50.775Z,1011.08
2022-10-19T07:06:50.741Z,1011.08
2022-10-19T07:07:50.817Z,1011.09
2022-10-19T07:08:50.729Z,1011.09
2022-10-19T07:09:50.726Z,1011.09
2022-10-19T07:10:50.717Z,1011.10
2022-10-19T07:11:50.762Z,1011.07
2022-10-19T07:12:50.714Z,1011.09
2022-10-19T07:13:50.697Z,1011.12
2022-10-19T07:14:50.685Z,1011.13
2022-10-19T07:15:50.713Z,1011.13
2022-10-19T07:16:50.699Z,1011.16
2022-10-19T07:17:50.682Z,1011.13
2022-10-19T07:18:50.668Z,1011.15
2022-10-19T07:19:50.653Z,1011.18
2022-10-19T07:20:50.677Z,1011.22
2022-10-19T07:21:50.654Z,1011.18
2022-10-19T07:22:50.646Z,1011.32
2022-10-19T07:23:50.635Z,1011.29
2022-10-19T07:24:50.661Z,1011.28
2022-10-19T07:25:50.626Z,1011.22
2022-10-19T07:26:50.609Z,1011.28
2022-10-19T07:27:50.965Z,1011.28
2022-10-19T07:28:50.669Z,1011.33
2022-10-19T07:29:50.595Z,1011.28
2022-10-19T07:30:50.617Z,1011.34
2022-10-19T07:31:50.587Z,1011.33
2022-10-19T07:32:50.617Z,1011.35
2022-10-19T07:33:50.560Z,1011.36
2022-10-19T07:34:50.556Z,1011.37
2022-10-19T07:35:50.563Z,1011.38
2022-10-19T07:36:50.561Z,1011.33
2022-10-19T07:37:50.561Z,1011.31
2022-10-19T07:38:50.537Z,1011.33
2022-10-19T07:39:50.586Z,1011.24
2022-10-19T07:40:50.544Z,1011.29
2022-10-19T07:41:50.516Z,1011.25
2022-10-19T07:42:50.528Z,1011.24
2022-10-19T07:43:50.511Z,1011.31
2022-10-19T07:44:50.512Z,1011.31
2022-10-19T07:45:50.497Z,1011.33
2022-10-19T07:46:50.485Z,1011.21
2022-10-19T07:47:50.483Z,1011.18
2022-10-19T07:48:50.472Z,1011.19
2022-10-19T07:49:50.575Z,1011.21
2022-10-19T07:50:50.452Z,1011.21
2022-10-19T07:51:50.457Z,1011.20
2022-10-19T07:52:50.476Z,1011.20
2022-10-19T07:53:50.481Z,1011.24
2022-10-19T07:54:50.500Z,1011.19
2022-10-19T07:55:50.456Z,1011.18
2022-10-19T07:56:50.431Z,1011.15
2022-10-19T07:57:50.419Z,1011.22
2022-10-19T07:58:50.404Z,1011.19
2022-10-19T07:59:50.403Z,1011.20
2022-10-19T08:00:50.436Z,1011.19
2022-10-19T08:01:50.522Z,1011.23
2022-10-19T08:03:00.096Z,1011.25
2022-10-19T08:05:02.062Z,1011.22
2022-10-19T08:05:52.370Z,1011.23
2022-10-19T08:06:50.355Z,1011.17
2022-10-19T08:07:50.367Z,1011.21
2022-10-19T08:08:50.361Z,1011.19
2022-10-19T08:09:54.333Z,1011.21
2022-10-19T08:10:51.351Z,1011.18
2022-10-19T08:11:50.340Z,1011.18
2022-10-19T08:12:50.335Z,1011.14
2022-10-19T08:13:50.314Z,1011.17
2022-10-19T08:14:50.302Z,1011.18
2022-10-19T08:15:50.303Z,1011.22
2022-10-19T08:16:50.286Z,1011.22
2022-10-19T08:17:50.310Z,1011.23
2022-10-19T08:18:50.279Z,1011.25
2022-10-19T08:19:50.270Z,1011.40
2022-10-19T08:20:50.275Z,1011.28
2022-10-19T08:21:50.264Z,1011.19
2022-10-19T08:22:52.040Z,1011.27
2022-10-19T08:23:50.258Z,1011.30
2022-10-19T08:24:50.250Z,1011.32
2022-10-19T08:25:50.236Z,1011.29
2022-10-19T08:26:50.234Z,1011.27
2022-10-19T08:27:50.222Z,1011.24
2022-10-19T08:28:50.238Z,1011.25
2022-10-19T08:29:50.215Z,1011.16
2022-10-19T08:30:50.206Z,1011.17
2022-10-19T08:31:50.224Z,1011.10
2022-10-19T08:32:50.191Z,1011.23
2022-10-19T08:33:50.195Z,1011.22
2022-10-19T08:34:50.218Z,1011.20
2022-10-19T08:35:50.167Z,1011.27
2022-10-19T08:36:50.167Z,1011.25
2022-10-19T08:37:50.565Z,1011.26
2022-10-19T08:38:50.164Z,1011.25
2022-10-19T08:39:50.171Z,1011.28
2022-10-19T08:40:50.133Z,1011.25
2022-10-19T08:41:51.068Z,1011.16
2022-10-19T08:42:50.131Z,1011.27
2022-10-19T08:43:50.149Z,1011.24
2022-10-19T08:44:50.122Z,1011.28
2022-10-19T08:45:50.139Z,1011.23
2022-10-19T08:46:50.147Z,1011.28
2022-10-19T08:47:50.229Z,1011.29
2022-10-19T08:48:50.099Z,1011.19
2022-10-19T08:49:50.080Z,1011.38
2022-10-19T08:50:50.073Z,1011.40
2022-10-19T08:51:50.113Z,1011.23
2022-10-19T08:52:50.065Z,1011.11
2022-10-19T08:53:50.053Z,1011.02
2022-10-19T08:54:50.095Z,1010.97
2022-10-19T08:55:50.041Z,1011.00
2022-10-19T08:56:51.834Z,1010.96
2022-10-19T08:57:51.057Z,1010.95
2022-10-19T08:58:50.025Z,1010.87
2022-10-19T08:59:50.096Z,1010.90
2022-10-19T09:00:50.032Z,1010.83
2022-10-19T09:01:50.024Z,1010.90
2022-10-19T09:02:50.086Z,1010.91
2022-10-19T09:03:55.451Z,1010.84
2022-10-19T09:04:52.199Z,1010.87
2022-10-19T09:05:50.048Z,1010.86
2022-10-19T09:06:49.988Z,1010.93
2022-10-19T09:07:50.007Z,1010.89
2022-10-19T09:08:50.013Z,1010.83
2022-10-19T09:09:49.998Z,1010.89
2022-10-19T09:10:49.982Z,1010.86
2022-10-19T09:11:49.948Z,1010.97
2022-10-19T09:12:52.818Z,1010.93
2022-10-19T09:14:04.842Z,1010.86
2022-10-19T09:14:51.937Z,1010.88
2022-10-19T09:15:49.930Z,1010.82
2022-10-19T09:16:49.917Z,1010.87
2022-10-19T09:17:50.018Z,1010.84
2022-10-19T09:18:49.996Z,1010.85
2022-10-19T09:19:49.922Z,1010.81
2022-10-19T09:20:49.939Z,1010.82
2022-10-19T09:21:49.925Z,1010.84
2022-10-19T09:22:49.875Z,1010.87
2022-10-19T09:23:49.894Z,1010.83
2022-10-19T09:24:49.862Z,1010.85
2022-10-19T09:25:49.867Z,1010.81
2022-10-19T09:26:49.910Z,1010.87
2022-10-19T09:27:49.846Z,1010.84
2022-10-19T09:28:49.867Z,1010.84
2022-10-19T09:29:49.823Z,1010.93
2022-10-19T09:30:49.818Z,1010.88
2022-10-19T09:31:49.864Z,1010.93
2022-10-19T09:32:49.811Z,1010.96
2022-10-19T09:33:49.839Z,1010.99
2022-10-19T09:34:49.834Z,1010.93
2022-10-19T09:35:49.792Z,1010.95
2022-10-19T09:36:51.162Z,1010.91
2022-10-19T09:37:49.793Z,1010.93
2022-10-19T09:38:49.771Z,1010.93
2022-10-19T09:39:54.057Z,1010.91
2022-10-19T09:40:51.761Z,1010.85
2022-10-19T09:41:49.792Z,1010.86
2022-10-19T09:42:49.754Z,1010.84
2022-10-19T09:43:49.779Z,1010.82
2022-10-19T09:44:49.751Z,1010.86
2022-10-19T09:45:49.786Z,1010.89
2022-10-19T09:46:49.754Z,1010.85
2022-10-19T09:47:49.723Z,1010.82
2022-10-19T09:48:49.722Z,1010.86
2022-10-19T09:49:49.764Z,1010.81
2022-10-19T09:50:49.680Z,1010.87
2022-10-19T09:51:49.791Z,1010.91
2022-10-19T09:52:49.671Z,1010.92
2022-10-19T09:53:49.707Z,1010.92
2022-10-19T09:54:49.967Z,1010.88
2022-10-19T09:56:50.431Z,1011.32
2022-10-19T09:57:49.764Z,1011.02
2022-10-19T09:58:50.382Z,1010.97
2022-10-19T09:59:49.803Z,1011.01
2022-10-19T10:00:49.670Z,1010.93
2022-10-19T10:01:49.735Z,1011.02
2022-10-19T10:02:49.619Z,1011.00
2022-10-19T10:03:52.500Z,1011.03
2022-10-19T10:04:50.604Z,1010.93
2022-10-19T10:05:49.635Z,1010.88
2022-10-19T10:06:49.604Z,1010.85
2022-10-19T10:07:49.595Z,1010.81
2022-10-19T10:08:49.607Z,1010.83
2022-10-19T10:09:49.580Z,1010.84
2022-10-19T10:10:49.610Z,1011.13
2022-10-19T10:11:49.652Z,1011.15
2022-10-19T10:12:49.586Z,1011.06
2022-10-19T10:13:49.559Z,1010.74
2022-10-19T10:14:49.579Z,1010.66
2022-10-19T10:15:49.572Z,1010.63
2022-10-19T10:16:49.525Z,1010.68
2022-10-19T10:17:49.536Z,1010.70
2022-10-19T10:18:49.510Z,1010.68
2022-10-19T10:19:49.525Z,1010.99
2022-10-19T10:20:49.556Z,1011.02
2022-10-19T10:21:49.487Z,1011.03
2022-10-19T10:22:49.525Z,1011.05
2022-10-19T10:23:49.482Z,1010.96
2022-10-19T10:24:49.482Z,1010.85
2022-10-19T10:25:49.602Z,1010.79
2022-10-19T10:26:49.507Z,1010.66
2022-10-19T10:27:49.514Z,1010.57
2022-10-19T10:28:49.452Z,1010.64
2022-10-19T10:29:49.496Z,1010.78
2022-10-19T10:30:49.434Z,1010.59
2022-10-19T10:31:49.452Z,1010.61
2022-10-19T10:32:49.490Z,1010.52
2022-10-19T10:33:49.568Z,1010.53
2022-10-19T10:34:53.075Z,1010.49
2022-10-19T10:35:51.418Z,1010.50
2022-10-19T10:36:49.428Z,1010.60
2022-10-19T10:37:49.421Z,1010.59
2022-10-19T10:38:49.421Z,1010.53
2022-10-19T10:39:49.425Z,1010.68
2022-10-19T10:40:49.373Z,1010.76
2022-10-19T10:41:49.374Z,1010.96
2022-10-19T10:42:49.381Z,1010.91
2022-10-19T10:43:49.377Z,1010.97
2022-10-19T10:44:49.337Z,1010.99
2022-10-19T10:45:49.341Z,1010.92
2022-10-19T10:46:49.363Z,1011.01
2022-10-19T10:47:49.446Z,1010.94
2022-10-19T10:48:51.483Z,1010.92
2022-10-19T10:49:49.406Z,1010.79
2022-10-19T10:50:49.305Z,1010.74
2022-10-19T10:51:52.211Z,1010.71
2022-10-19T10:52:49.295Z,1010.65
2022-10-19T10:53:49.449Z,1010.35
2022-10-19T10:54:49.314Z,1010.43
2022-10-19T10:55:49.269Z,1010.66
2022-10-19T10:56:49.319Z,1010.30
2022-10-19T10:57:49.337Z,1010.20
2022-10-19T10:58:49.263Z,1010.23
2022-10-19T10:59:49.284Z,1010.16
2022-10-19T11:00:50.053Z,1010.11
2022-10-19T11:01:49.311Z,1010.08
2022-10-19T11:02:49.267Z,1010.14
2022-10-19T11:03:49.222Z,1010.07
2022-10-19T11:04:52.176Z,1010.11
2022-10-19T11:05:49.223Z,1010.08
2022-10-19T11:06:49.222Z,1010.07
2022-10-19T11:07:49.249Z,1010.10
2022-10-19T11:08:49.406Z,1010.20
2022-10-19T11:09:49.237Z,1010.06
2022-10-19T11:10:49.242Z,1009.92
2022-10-19T11:11:49.194Z,1010.03
2022-10-19T11:12:49.200Z,1010.00
2022-10-19T11:13:49.169Z,1009.94
2022-10-19T11:14:49.274Z,1009.94
2022-10-19T11:15:49.166Z,1009.84
2022-10-19T11:16:49.177Z,1009.80
2022-10-19T11:17:49.144Z,1009.82
2022-10-19T11:18:49.174Z,1009.85
2022-10-19T11:19:49.136Z,1010.04
2022-10-19T11:20:49.248Z,1009.96
2022-10-19T11:21:49.113Z,1010.15
2022-10-19T11:22:49.122Z,1010.05
2022-10-19T11:23:49.103Z,1009.75
2022-10-19T11:24:49.183Z,1009.74
2022-10-19T11:25:49.103Z,1009.68
2022-10-19T11:26:49.164Z,1009.78
2022-10-19T11:27:49.095Z,1009.73
2022-10-19T11:28:49.126Z,1009.70
2022-10-19T11:29:49.071Z,1009.68
2022-10-19T11:30:50.725Z,1009.62
2022-10-19T11:31:50.083Z,1009.63
2022-10-19T11:32:49.063Z,1009.65
2022-10-19T11:33:49.021Z,1009.66
2022-10-19T11:34:50.037Z,1009.62
2022-10-19T11:35:49.046Z,1009.55
2022-10-19T11:36:49.041Z,1009.60
2022-10-19T11:37:50.063Z,1009.53
2022-10-19T11:38:50.991Z,1009.55
2022-10-19T11:39:49.182Z,1009.57
2022-10-19T11:41:12.847Z,1009.94
2022-10-19T11:41:51.036Z,1009.95
2022-10-19T11:42:48.970Z,1009.98
2022-10-19T11:43:49.032Z,1009.95
2022-10-19T11:44:49.618Z,1009.95
2022-10-19T11:45:50.723Z,1009.90
2022-10-19T11:46:48.939Z,1009.89
2022-10-19T11:47:48.939Z,1009.90
2022-10-19T11:48:52.875Z,1009.85
2022-10-19T11:49:49.927Z,1009.79
2022-10-19T11:50:54.081Z,1009.72
2022-10-19T11:51:50.928Z,1009.57
2022-10-19T11:52:48.891Z,1009.36
2022-10-19T11:53:48.971Z,1009.38
2022-10-19T11:54:48.902Z,1009.31
2022-10-19T11:55:48.881Z,1009.36
2022-10-19T11:57:03.224Z,1009.23
2022-10-19T11:57:50.911Z,1009.25
2022-10-19T11:58:48.884Z,1009.24
2022-10-19T11:59:48.836Z,1009.31
2022-10-19T12:00:49.871Z,1009.34
2022-10-19T12:01:48.908Z,1009.20
2022-10-19T12:02:48.861Z,1009.12
2022-10-19T12:03:48.877Z,1009.08
2022-10-19T12:04:48.822Z,1009.09
2022-10-19T12:05:48.837Z,1009.45
2022-10-19T12:06:48.829Z,1009.40
2022-10-19T12:07:48.869Z,1009.41
2022-10-19T12:08:51.289Z,1009.40
2022-10-19T12:09:48.783Z,1009.45